createdAt,value
2023-03-29T00:01:58.206Z,7.73
2023-03-29T00:04:24.577Z,7.81
2023-03-29T00:06:50.911Z,7.76
2023-03-29T00:09:17.217Z,7.55
2023-03-29T00:11:43.534Z,7.55
2023-03-29T00:14:09.861Z,7.65
2023-03-29T00:16:36.205Z,7.40
2023-03-29T00:19:02.525Z,7.31
2023-03-29T00:21:28.834Z,7.36
2023-03-29T00:23:55.138Z,7.48
2023-03-29T00:26:21.457Z,7.45
2023-03-29T00:28:47.786Z,7.51
2023-03-29T00:31:14.167Z,7.65
2023-03-29T00:33:40.506Z,7.77
2023-03-29T00:36:07.039Z,7.84
2023-03-29T00:38:33.463Z,7.94
2023-03-29T00:40:59.942Z,7.93
2023-03-29T00:43:26.382Z,7.96
2023-03-29T00:45:52.690Z,7.99
2023-03-29T00:48:19.038Z,8.01
2023-03-29T00:50:45.397Z,8.01
2023-03-29T00:53:11.736Z,8.00
2023-03-29T00:55:38.054Z,7.96
2023-03-29T00:58:04.383Z,7.88
2023-03-29T01:00:30.734Z,7.62
2023-03-29T01:02:57.184Z,7.49
2023-03-29T01:05:23.578Z,7.29
2023-03-29T01:07:49.903Z,7.25
2023-03-29T01:10:16.246Z,7.24
2023-03-29T01:12:42.591Z,7.32
2023-03-29T01:15:08.917Z,7.40
2023-03-29T01:17:35.282Z,7.45
2023-03-29T01:20:01.647Z,7.55
2023-03-29T01:22:27.978Z,7.89
2023-03-29T01:24:54.299Z,8.02
2023-03-29T01:27:20.607Z,7.98
2023-03-29T01:29:46.917Z,7.89
2023-03-29T01:32:13.228Z,7.80
2023-03-29T01:34:39.548Z,7.90
2023-03-29T01:37:05.865Z,7.83
2023-03-29T01:39:32.174Z,7.95
2023-03-29T01:41:58.478Z,8.03
2023-03-29T01:44:24.788Z,8.03
2023-03-29T01:46:52.213Z,8.11
2023-03-29T01:49:18.608Z,8.11
2023-03-29T01:51:44.943Z,8.05
2023-03-29T01:54:11.269Z,8.06
2023-03-29T01:56:37.613Z,7.86
2023-03-29T01:59:03.990Z,8.04
2023-03-29T02:01:30.353Z,7.80
2023-03-29T02:03:56.683Z,7.69
2023-03-29T02:06:22.986Z,7.62
2023-03-29T02:08:49.294Z,7.64
2023-03-29T02:11:15.645Z,7.68
2023-03-29T02:13:41.971Z,7.85
2023-03-29T02:16:08.316Z,7.85
2023-03-29T02:18:34.671Z,7.95
2023-03-29T02:21:01.131Z,7.86
2023-03-29T02:23:27.617Z,7.86
2023-03-29T02:25:53.972Z,7.74
2023-03-29T02:28:20.289Z,7.65
2023-03-29T02:30:46.739Z,7.60
2023-03-29T02:33:13.086Z,7.58
2023-03-29T02:35:39.423Z,7.58
2023-03-29T02:38:05.768Z,7.62
2023-03-29T02:40:32.117Z,7.59
2023-03-29T02:42:58.438Z,7.63
2023-03-29T02:45:24.761Z,7.71
2023-03-29T02:47:51.105Z,7.80
2023-03-29T02:50:17.438Z,7.83
2023-03-29T02:52:43.787Z,7.80
2023-03-29T02:55:10.107Z,7.93
2023-03-29T02:57:36.448Z,8.01
2023-03-29T03:00:02.768Z,8.14
2023-03-29T03:02:29.119Z,8.21
2023-03-29T03:04:55.459Z,8.26
2023-03-29T03:07:21.791Z,8.22
2023-03-29T03:09:48.112Z,8.23
2023-03-29T03:12:14.441Z,8.34
2023-03-29T03:14:40.756Z,8.29
2023-03-29T03:17:07.088Z,8.30
2023-03-29T03:19:33.422Z,8.22
2023-03-29T03:21:59.774Z,8.28
2023-03-29T03:24:26.073Z,8.25
2023-03-29T03:26:52.381Z,8.36
2023-03-29T03:29:18.719Z,8.41
2023-03-29T03:31:45.096Z,8.49
2023-03-29T03:34:11.724Z,8.49
2023-03-29T03:36:38.080Z,8.48
2023-03-29T03:39:04.409Z,8.50
2023-03-29T03:41:30.740Z,8.54
2023-03-29T03:43:57.050Z,8.59
2023-03-29T03:46:23.448Z,8.58
2023-03-29T03:48:49.843Z,8.62
2023-03-29T03:51:16.188Z,8.55
2023-03-29T03:53:42.501Z,8.49
2023-03-29T03:56:08.888Z,8.52
2023-03-29T03:58:35.276Z,8.59
2023-03-29T04:01:01.794Z,8.61
2023-03-29T04:03:28.349Z,8.67
2023-03-29T04:05:54.736Z,8.75
2023-03-29T04:08:21.038Z,8.72
2023-03-29T04:10:47.367Z,8.70
2023-03-29T04:13:13.937Z,8.74
2023-03-29T04:15:40.301Z,8.76
2023-03-29T04:18:06.715Z,8.63
2023-03-29T04:20:33.105Z,8.66
2023-03-29T04:22:59.519Z,8.67
2023-03-29T04:25:25.848Z,8.76
2023-03-29T04:27:52.161Z,8.78
2023-03-29T04:30:18.516Z,8.83
2023-03-29T04:32:44.924Z,8.81
2023-03-29T04:35:11.249Z,8.79
2023-03-29T04:37:37.565Z,8.80
2023-03-29T04:40:03.904Z,8.76
2023-03-29T04:42:30.227Z,8.84
2023-03-29T04:44:56.549Z,8.76
2023-03-29T04:47:22.897Z,8.81
2023-03-29T04:49:49.238Z,8.91
2023-03-29T04:52:15.562Z,8.88
2023-03-29T04:54:41.876Z,8.83
2023-03-29T04:57:08.295Z,8.88
2023-03-29T04:59:34.649Z,8.89
2023-03-29T05:02:01.001Z,8.91
2023-03-29T05:04:27.385Z,8.96
2023-03-29T05:06:53.708Z,8.99
2023-03-29T05:09:20.031Z,8.91
2023-03-29T05:11:46.337Z,8.91
2023-03-29T05:14:12.661Z,8.93
2023-03-29T05:16:39.097Z,8.93
2023-03-29T05:19:05.506Z,8.89
2023-03-29T05:21:31.825Z,8.99
2023-03-29T05:23:58.168Z,8.92
2023-03-29T05:26:24.482Z,8.95
2023-03-29T05:28:50.803Z,8.87
2023-03-29T05:31:17.351Z,8.95
2023-03-29T05:33:43.707Z,8.98
2023-03-29T05:36:10.048Z,8.98
2023-03-29T05:38:36.405Z,8.98
2023-03-29T05:41:02.839Z,8.98
2023-03-29T05:43:29.314Z,8.95
2023-03-29T05:45:55.744Z,8.97
2023-03-29T05:48:22.084Z,8.96
2023-03-29T05:50:48.412Z,9.01
2023-03-29T05:53:14.722Z,9.00
2023-03-29T05:55:41.022Z,8.99
2023-03-29T05:58:07.345Z,8.96
2023-03-29T06:00:33.678Z,9.02
2023-03-29T06:03:13.311Z,9.05
2023-03-29T06:05:44.175Z,9.10
2023-03-29T06:08:10.483Z,9.09
2023-03-29T06:10:36.809Z,9.04
2023-03-29T06:13:03.161Z,9.13
2023-03-29T06:15:29.467Z,9.12
2023-03-29T06:17:55.793Z,9.17
2023-03-29T06:20:22.167Z,9.20
2023-03-29T06:22:48.490Z,9.08
2023-03-29T06:25:14.806Z,9.05
2023-03-29T06:27:41.145Z,9.07
2023-03-29T06:30:07.484Z,9.16
2023-03-29T06:32:33.865Z,9.12
2023-03-29T06:35:00.220Z,9.22
2023-03-29T06:37:26.550Z,9.20
2023-03-29T06:39:53.370Z,9.18
2023-03-29T06:42:21.559Z,9.23
2023-03-29T06:44:48.265Z,9.15
2023-03-29T06:47:14.586Z,9.21
2023-03-29T06:49:40.924Z,9.20
2023-03-29T06:52:07.262Z,9.16
2023-03-29T06:54:33.581Z,9.12
2023-03-29T06:56:59.964Z,9.14
2023-03-29T06:59:26.356Z,9.20
2023-03-29T07:01:52.722Z,9.29
2023-03-29T07:04:19.096Z,9.26
2023-03-29T07:06:45.526Z,9.38
2023-03-29T07:09:11.855Z,9.55
2023-03-29T07:11:38.178Z,9.57
2023-03-29T07:14:04.488Z,9.62
2023-03-29T07:16:30.838Z,9.72
2023-03-29T07:18:57.176Z,9.72
2023-03-29T07:21:23.509Z,9.83
2023-03-29T07:23:49.813Z,9.89
2023-03-29T07:26:16.115Z,9.90
2023-03-29T07:28:55.165Z,9.98
2023-03-29T07:31:21.470Z,9.98
2023-03-29T07:33:47.863Z,10.00
2023-03-29T07:36:14.284Z,9.97
2023-03-29T07:38:40.626Z,10.06
2023-03-29T07:41:06.988Z,10.07
2023-03-29T07:43:33.419Z,10.10
2023-03-29T07:45:59.760Z,10.14
2023-03-29T07:48:26.098Z,10.31
2023-03-29T07:50:52.405Z,10.30
2023-03-29T07:53:18.734Z,10.26
2023-03-29T07:55:47.007Z,10.29
2023-03-29T07:58:13.808Z,10.33
2023-03-29T08:00:40.188Z,10.42
2023-03-29T08:03:06.618Z,10.55
2023-03-29T08:05:40.640Z,10.49
2023-03-29T08:08:08.180Z,10.50
2023-03-29T08:10:34.537Z,10.57
2023-03-29T08:13:00.884Z,10.61
2023-03-29T08:15:27.237Z,10.69
2023-03-29T08:17:53.644Z,10.80
2023-03-29T08:20:20.042Z,10.82
2023-03-29T08:22:46.363Z,10.80
2023-03-29T08:25:13.866Z,10.84
2023-03-29T08:27:40.215Z,10.90
2023-03-29T08:30:06.571Z,10.93
2023-03-29T08:32:32.944Z,10.94
2023-03-29T08:34:59.265Z,11.02
2023-03-29T08:37:25.589Z,11.08
2023-03-29T08:39:51.927Z,11.16
2023-03-29T08:42:18.233Z,11.12
2023-03-29T08:44:44.631Z,11.14
2023-03-29T08:47:10.934Z,11.14
2023-03-29T08:49:37.261Z,11.15
2023-03-29T08:52:03.601Z,11.16
2023-03-29T08:54:29.922Z,11.22
2023-03-29T08:56:56.285Z,11.22
2023-03-29T08:59:22.610Z,11.24
2023-03-29T09:01:48.969Z,11.34
2023-03-29T09:04:17.292Z,11.42
2023-03-29T09:06:43.619Z,11.47
2023-03-29T09:09:09.943Z,11.63
2023-03-29T09:11:36.278Z,11.74
2023-03-29T09:14:02.595Z,11.61
2023-03-29T09:16:28.960Z,11.71
2023-03-29T09:18:55.309Z,11.77
2023-03-29T09:21:21.621Z,11.87
2023-03-29T09:23:47.955Z,12.02
2023-03-29T09:26:14.297Z,12.19
2023-03-29T09:28:40.621Z,12.16
2023-03-29T09:31:06.993Z,12.14
2023-03-29T09:33:33.327Z,12.13
2023-03-29T09:35:59.704Z,12.10
2023-03-29T09:38:26.021Z,12.14
2023-03-29T09:40:52.345Z,12.07
2023-03-29T09:43:18.660Z,12.07
2023-03-29T09:45:45.018Z,12.06
2023-03-29T09:48:11.538Z,12.04
2023-03-29T09:50:37.954Z,12.19
2023-03-29T09:53:04.271Z,12.35
2023-03-29T09:55:30.610Z,12.31
2023-03-29T09:57:57.108Z,12.34
2023-03-29T10:00:23.441Z,12.45
2023-03-29T10:02:49.816Z,12.29
2023-03-29T10:05:16.155Z,12.48
2023-03-29T10:07:42.486Z,12.55
2023-03-29T10:10:08.805Z,12.46
2023-03-29T10:12:35.152Z,12.64
2023-03-29T10:15:01.473Z,12.53
2023-03-29T10:17:27.821Z,12.35
2023-03-29T10:19:54.230Z,12.41
2023-03-29T10:22:20.574Z,12.43
2023-03-29T10:24:46.902Z,12.39
2023-03-29T10:27:13.232Z,12.43
2023-03-29T10:29:39.548Z,12.49
2023-03-29T10:32:05.905Z,12.70
2023-03-29T10:34:32.261Z,12.77
2023-03-29T10:36:58.607Z,12.81
2023-03-29T10:39:24.932Z,12.91
2023-03-29T10:41:51.272Z,12.91
2023-03-29T10:44:17.577Z,13.00
2023-03-29T10:46:43.986Z,13.14
2023-03-29T10:49:10.459Z,13.08
2023-03-29T10:51:36.791Z,13.20
2023-03-29T10:54:03.156Z,13.36
2023-03-29T10:56:29.489Z,13.46
2023-03-29T10:58:55.824Z,13.35
2023-03-29T11:01:22.158Z,13.08
2023-03-29T11:03:48.608Z,13.14
2023-03-29T11:06:14.971Z,13.18
2023-03-29T11:08:41.275Z,13.38
2023-03-29T11:11:07.624Z,13.41
2023-03-29T11:13:33.957Z,13.36
2023-03-29T11:16:00.322Z,13.39
2023-03-29T11:18:26.650Z,13.46
2023-03-29T11:20:52.971Z,13.45
2023-03-29T11:23:19.301Z,13.32
2023-03-29T11:25:45.628Z,13.23
2023-03-29T11:28:11.942Z,13.34
2023-03-29T11:30:38.250Z,13.26
2023-03-29T11:33:04.595Z,13.36
2023-03-29T11:35:30.975Z,13.18
2023-03-29T11:37:57.344Z,13.22
2023-03-29T11:40:23.704Z,13.32
2023-03-29T11:42:50.010Z,13.58
2023-03-29T11:45:16.353Z,13.69
2023-03-29T11:47:42.838Z,13.79
2023-03-29T11:50:09.203Z,13.88
2023-03-29T11:52:35.525Z,13.86
2023-03-29T11:55:01.826Z,13.90
2023-03-29T11:57:28.227Z,13.94
2023-03-29T11:59:54.674Z,13.92
2023-03-29T12:02:21.160Z,13.95
2023-03-29T12:04:47.555Z,13.92
2023-03-29T12:07:13.867Z,13.90
2023-03-29T12:09:40.198Z,13.98
2023-03-29T12:12:06.521Z,14.01
2023-03-29T12:14:32.826Z,13.97
2023-03-29T12:16:59.190Z,13.89
2023-03-29T12:19:25.623Z,13.99
2023-03-29T12:21:51.953Z,13.87
2023-03-29T12:24:18.266Z,14.00
2023-03-29T12:26:44.619Z,14.02
2023-03-29T12:29:10.963Z,14.21
2023-03-29T12:31:37.339Z,14.24
2023-03-29T12:34:03.675Z,14.31
2023-03-29T12:36:30.001Z,14.31
2023-03-29T12:38:56.334Z,14.29
2023-03-29T12:41:22.659Z,14.12
2023-03-29T12:43:48.987Z,14.05
2023-03-29T12:46:15.413Z,14.25
2023-03-29T12:48:41.767Z,14.34
2023-03-29T12:51:08.111Z,14.44
2023-03-29T12:53:34.458Z,14.44
2023-03-29T12:56:01.024Z,14.48
2023-03-29T12:58:27.510Z,14.52
2023-03-29T13:00:53.848Z,14.70
2023-03-29T13:03:20.376Z,14.76
2023-03-29T13:05:46.926Z,14.77
2023-03-29T13:08:13.446Z,14.84
2023-03-29T13:10:39.777Z,14.79
2023-03-29T13:13:06.099Z,14.78
2023-03-29T13:15:32.434Z,14.74
2023-03-29T13:17:58.848Z,14.83
2023-03-29T13:20:25.204Z,14.85
2023-03-29T13:22:51.514Z,14.97
2023-03-29T13:25:17.834Z,15.03
2023-03-29T13:27:44.180Z,15.21
2023-03-29T13:30:10.522Z,15.37
2023-03-29T13:32:36.860Z,15.46
2023-03-29T13:35:03.221Z,15.53
2023-03-29T13:37:29.553Z,15.66
2023-03-29T13:39:55.857Z,15.75
2023-03-29T13:42:22.172Z,15.86
2023-03-29T13:44:48.499Z,16.05
2023-03-29T13:47:14.830Z,16.07
2023-03-29T13:49:41.169Z,16.14
2023-03-29T13:52:07.489Z,16.21
2023-03-29T13:54:33.806Z,16.24
2023-03-29T13:57:00.157Z,16.34
2023-03-29T13:59:26.528Z,16.40
2023-03-29T14:01:52.894Z,16.58
2023-03-29T14:04:19.234Z,16.64
2023-03-29T14:06:45.555Z,16.76
2023-03-29T14:09:11.867Z,16.87
2023-03-29T14:11:38.204Z,16.94
2023-03-29T14:14:04.523Z,16.92
2023-03-29T14:16:30.868Z,16.91
2023-03-29T14:18:57.222Z,16.93
2023-03-29T14:21:23.563Z,16.94
2023-03-29T14:23:49.894Z,17.02
2023-03-29T14:26:16.243Z,17.10
2023-03-29T14:28:42.567Z,17.03
2023-03-29T14:31:08.915Z,17.00
2023-03-29T14:33:35.271Z,17.07
2023-03-29T14:36:01.888Z,16.94
2023-03-29T14:38:28.449Z,16.92
2023-03-29T14:40:54.769Z,16.96
2023-03-29T14:43:21.098Z,16.92
2023-03-29T14:45:47.492Z,16.91
2023-03-29T14:48:13.861Z,16.90
2023-03-29T14:50:40.450Z,16.97
2023-03-29T14:53:06.821Z,16.88
2023-03-29T14:55:33.156Z,16.74
2023-03-29T14:57:59.493Z,16.70
2023-03-29T15:00:25.804Z,16.66
2023-03-29T15:02:52.233Z,16.76
2023-03-29T15:05:18.610Z,16.69
2023-03-29T15:07:44.939Z,16.59
2023-03-29T15:10:11.272Z,16.66
2023-03-29T15:12:37.583Z,16.60
2023-03-29T15:15:03.889Z,16.58
2023-03-29T15:17:42.624Z,16.52
2023-03-29T15:20:16.386Z,16.49
2023-03-29T15:22:42.722Z,16.47
2023-03-29T15:25:09.046Z,16.57
2023-03-29T15:27:35.377Z,16.40
2023-03-29T15:30:01.701Z,16.41
2023-03-29T15:32:28.031Z,16.45
2023-03-29T15:34:54.371Z,16.54
2023-03-29T15:37:20.746Z,16.62
2023-03-29T15:39:47.088Z,16.67
2023-03-29T15:42:13.397Z,16.60
2023-03-29T15:44:39.731Z,16.63
2023-03-29T15:47:06.086Z,16.62
2023-03-29T15:49:32.413Z,16.76
2023-03-29T15:51:58.744Z,16.69
2023-03-29T15:54:25.070Z,16.64
2023-03-29T15:56:51.455Z,16.52
2023-03-29T15:59:17.894Z,16.57
2023-03-29T16:01:44.240Z,16.50
2023-03-29T16:04:10.597Z,16.51
2023-03-29T16:06:36.980Z,16.48
2023-03-29T16:09:03.299Z,16.44
2023-03-29T16:11:29.655Z,16.37
2023-03-29T16:13:56.026Z,16.38
2023-03-29T16:16:22.437Z,16.37
2023-03-29T16:18:48.826Z,16.34
2023-03-29T16:21:15.143Z,16.29
2023-03-29T16:23:41.467Z,16.25
2023-03-29T16:26:07.779Z,16.24
2023-03-29T16:28:34.086Z,16.17
2023-03-29T16:31:00.394Z,16.14
2023-03-29T16:33:26.717Z,16.09
2023-03-29T16:35:53.151Z,16.09
2023-03-29T16:38:19.489Z,16.05
2023-03-29T16:40:45.819Z,16.04
2023-03-29T16:43:12.147Z,16.12
2023-03-29T16:45:38.512Z,16.04
2023-03-29T16:48:04.871Z,16.03
2023-03-29T16:50:31.271Z,15.99
2023-03-29T16:52:57.616Z,15.96
2023-03-29T16:55:23.936Z,15.91
2023-03-29T16:57:50.273Z,15.87
2023-03-29T17:00:16.579Z,15.86
2023-03-29T17:02:43.077Z,15.82
2023-03-29T17:05:09.476Z,15.88
2023-03-29T17:07:35.944Z,15.78
2023-03-29T17:10:02.290Z,15.79
2023-03-29T17:12:28.631Z,15.55
2023-03-29T17:14:54.951Z,15.47
2023-03-29T17:17:21.293Z,15.40
2023-03-29T17:19:47.652Z,15.28
2023-03-29T17:22:13.981Z,15.14
2023-03-29T17:24:40.299Z,15.05
2023-03-29T17:27:06.630Z,15.00
2023-03-29T17:29:32.982Z,14.92
2023-03-29T17:31:59.321Z,14.87
2023-03-29T17:34:25.639Z,14.78
2023-03-29T17:36:51.980Z,14.74
2023-03-29T17:39:18.294Z,14.71
2023-03-29T17:41:44.625Z,14.68
2023-03-29T17:44:10.962Z,14.83
2023-03-29T17:46:37.420Z,14.70
2023-03-29T17:49:03.788Z,14.60
2023-03-29T17:51:30.095Z,14.56
2023-03-29T17:53:56.418Z,14.54
2023-03-29T17:56:22.786Z,14.43
2023-03-29T17:58:49.113Z,14.37
2023-03-29T18:01:15.471Z,14.30
2023-03-29T18:03:41.837Z,14.22
2023-03-29T18:06:08.152Z,14.09
2023-03-29T18:08:34.474Z,14.06
2023-03-29T18:11:00.825Z,14.11
2023-03-29T18:13:27.152Z,14.16
2023-03-29T18:15:53.477Z,14.11
2023-03-29T18:18:19.787Z,14.05
2023-03-29T18:20:46.124Z,13.89
2023-03-29T18:23:12.467Z,13.83
2023-03-29T18:25:39.040Z,13.83
2023-03-29T18:28:05.373Z,13.88
2023-03-29T18:30:31.690Z,13.86
2023-03-29T18:32:58.051Z,13.86
2023-03-29T18:35:24.410Z,13.84
2023-03-29T18:37:50.730Z,13.89
2023-03-29T18:40:17.041Z,13.87
2023-03-29T18:42:43.354Z,13.73
2023-03-29T18:45:09.672Z,13.67
2023-03-29T18:47:36.079Z,13.60
2023-03-29T18:50:02.474Z,13.45
2023-03-29T18:52:28.821Z,13.45
2023-03-29T18:54:55.158Z,13.35
2023-03-29T18:57:21.548Z,13.35
2023-03-29T18:59:47.894Z,13.40
2023-03-29T19:02:14.232Z,13.45
2023-03-29T19:04:40.561Z,13.41
2023-03-29T19:07:06.895Z,13.26
2023-03-29T19:09:33.221Z,13.25
2023-03-29T19:11:59.555Z,13.10
2023-03-29T19:14:25.882Z,13.12
2023-03-29T19:16:52.205Z,13.13
2023-03-29T19:19:18.510Z,13.04
2023-03-29T19:21:44.844Z,13.06
2023-03-29T19:24:11.173Z,13.10
2023-03-29T19:26:37.502Z,13.17
2023-03-29T19:29:03.833Z,13.18
2023-03-29T19:31:30.299Z,13.19
2023-03-29T19:33:56.696Z,13.13
2023-03-29T19:36:23.037Z,13.06
2023-03-29T19:38:49.346Z,12.99
2023-03-29T19:41:15.674Z,12.93
2023-03-29T19:43:41.986Z,12.92
2023-03-29T19:46:08.437Z,12.87
2023-03-29T19:48:34.882Z,12.80
2023-03-29T19:51:01.252Z,12.80
2023-03-29T19:53:27.566Z,12.82
2023-03-29T19:55:53.890Z,12.83
2023-03-29T19:58:20.227Z,12.71
2023-03-29T20:00:46.547Z,12.60
2023-03-29T20:03:12.922Z,12.56
2023-03-29T20:05:39.266Z,12.47
2023-03-29T20:08:05.578Z,12.46
2023-03-29T20:10:31.901Z,12.49
2023-03-29T20:12:58.225Z,12.51
2023-03-29T20:15:24.558Z,12.58
2023-03-29T20:17:50.911Z,12.53
2023-03-29T20:20:17.249Z,12.42
2023-03-29T20:22:43.564Z,12.36
2023-03-29T20:25:09.953Z,12.32
2023-03-29T20:27:36.292Z,12.26
2023-03-29T20:30:02.617Z,12.24
2023-03-29T20:32:28.947Z,12.10
2023-03-29T20:34:55.307Z,12.09
2023-03-29T20:37:21.622Z,12.06
2023-03-29T20:39:47.969Z,12.01
2023-03-29T20:42:14.307Z,12.05
2023-03-29T20:44:40.638Z,12.07
2023-03-29T20:47:06.961Z,12.13
2023-03-29T20:49:33.295Z,12.20
2023-03-29T20:51:59.630Z,12.18
2023-03-29T20:54:25.937Z,12.16
2023-03-29T20:56:52.301Z,12.17
2023-03-29T20:59:18.632Z,12.19
2023-03-29T21:01:45.022Z,12.23
2023-03-29T21:04:11.404Z,12.23
2023-03-29T21:06:37.702Z,12.27
2023-03-29T21:09:04.024Z,12.25
2023-03-29T21:11:30.359Z,12.23
2023-03-29T21:13:56.696Z,12.24
2023-03-29T21:16:23.145Z,12.33
2023-03-29T21:18:49.551Z,12.35
2023-03-29T21:21:15.879Z,12.36
2023-03-29T21:23:42.195Z,12.41
2023-03-29T21:26:08.521Z,12.42
2023-03-29T21:28:34.855Z,12.42
2023-03-29T21:31:01.396Z,12.40
2023-03-29T21:33:27.883Z,12.38
2023-03-29T21:35:54.228Z,12.37
2023-03-29T21:38:20.594Z,12.34
2023-03-29T21:40:46.922Z,12.44
2023-03-29T21:43:13.231Z,12.43
2023-03-29T21:45:39.533Z,12.44
2023-03-29T21:48:05.879Z,12.47
2023-03-29T21:50:33.797Z,12.51
2023-03-29T21:53:00.343Z,12.57
2023-03-29T21:55:26.650Z,12.62
2023-03-29T21:57:52.965Z,12.58
2023-03-29T22:00:19.293Z,12.30
2023-03-29T22:02:45.758Z,12.35
2023-03-29T22:05:12.248Z,12.29
2023-03-29T22:07:38.664Z,12.25
2023-03-29T22:10:05.082Z,12.13
2023-03-29T22:12:31.554Z,12.06
2023-03-29T22:14:57.888Z,11.91
2023-03-29T22:17:24.241Z,11.86
2023-03-29T22:19:50.605Z,11.82
2023-03-29T22:22:16.917Z,11.82
2023-03-29T22:24:43.252Z,11.93
2023-03-29T22:27:09.555Z,12.09
2023-03-29T22:29:35.858Z,12.06
2023-03-29T22:32:02.237Z,12.07
2023-03-29T22:34:28.641Z,12.07
2023-03-29T22:36:54.960Z,12.18
2023-03-29T22:39:21.299Z,12.18
2023-03-29T22:41:47.610Z,12.13
2023-03-29T22:44:13.935Z,12.12
2023-03-29T22:46:40.248Z,12.13
2023-03-29T22:49:06.574Z,12.07
2023-03-29T22:51:32.905Z,12.03
2023-03-29T22:53:59.249Z,12.03
2023-03-29T22:56:25.686Z,11.97
2023-03-29T22:58:52.025Z,12.00
2023-03-29T23:01:18.352Z,11.99
2023-03-29T23:03:44.678Z,12.01
2023-03-29T23:06:10.990Z,12.02
2023-03-29T23:08:37.297Z,12.01
2023-03-29T23:11:03.731Z,12.03
2023-03-29T23:13:30.228Z,12.12
2023-03-29T23:15:56.589Z,12.09
2023-03-29T23:18:22.962Z,12.20
2023-03-29T23:20:49.269Z,12.35
2023-03-29T23:23:15.577Z,12.54
2023-03-29T23:25:41.896Z,12.56
2023-03-29T23:28:08.224Z,12.36
2023-03-29T23:30:34.587Z,12.31
2023-03-29T23:33:00.956Z,12.23
2023-03-29T23:35:27.387Z,12.30
2023-03-29T23:37:53.742Z,12.15
2023-03-29T23:40:20.074Z,12.21
2023-03-29T23:42:46.399Z,12.21
2023-03-29T23:45:12.743Z,12.17
2023-03-29T23:47:39.087Z,12.15
2023-03-29T23:50:05.448Z,12.09
2023-03-29T23:52:31.760Z,12.04
2023-03-29T23:54:58.092Z,12.01
2023-03-29T23:57:24.461Z,11.95
2023-03-29T23:59:50.806Z,11.85
